sensor_id;sensor_type;location;lat;lon;timestamp;P1;durP1;ratioP1;P2;durP2;ratioP2
2840;SDS011;53423;49.224;12.074;2023-02-03T00:01:24;9.57;;;8.67;;
2840;SDS011;53423;49.224;12.074;2023-02-03T00:03:53;10.57;;;9.57;;
2840;SDS011;53423;49.224;12.074;2023-02-03T00:06:21;9.27;;;8.43;;
2840;SDS011;53423;49.224;12.074;2023-02-03T00:08:51;9.97;;;9.10;;
2840;SDS011;53423;49.224;12.074;2023-02-03T00:11:20;9.53;;;8.63;;
2840;SDS011;53423;49.224;12.074;2023-02-03T00:13:48;9.23;;;8.33;;
2840;SDS011;53423;49.224;12.074;2023-02-03T00:16:16;8.63;;;7.83;;
2840;SDS011;53423;49.224;12.074;2023-02-03T00:18:44;9.33;;;8.43;;
2840;SDS011;53423;49.224;12.074;2023-02-03T00:21:13;8.67;;;7.87;;
2840;SDS011;53423;49.224;12.074;2023-02-03T00:23:41;8.57;;;7.77;;
2840;SDS011;53423;49.224;12.074;2023-02-03T00:26:09;8.47;;;7.57;;
2840;SDS011;53423;49.224;12.074;2023-02-03T00:28:39;8.33;;;7.53;;
2840;SDS011;53423;49.224;12.074;2023-02-03T00:31:13;7.97;;;7.27;;
2840;SDS011;53423;49.224;12.074;2023-02-03T00:33:42;8.17;;;7.40;;
2840;SDS011;53423;49.224;12.074;2023-02-03T00:36:10;8.53;;;7.77;;
2840;SDS011;53423;49.224;12.074;2023-02-03T00:38:40;8.47;;;7.47;;
2840;SDS011;53423;49.224;12.074;2023-02-03T00:41:08;8.70;;;7.80;;
2840;SDS011;53423;49.224;12.074;2023-02-03T00:43:36;7.63;;;6.93;;
2840;SDS011;53423;49.224;12.074;2023-02-03T00:46:04;8.07;;;7.37;;
2840;SDS011;53423;49.224;12.074;2023-02-03T00:48:32;7.57;;;6.87;;
2840;SDS011;53423;49.224;12.074;2023-02-03T00:51:00;8.93;;;7.50;;
2840;SDS011;53423;49.224;12.074;2023-02-03T00:53:28;8.47;;;7.20;;
2840;SDS011;53423;49.224;12.074;2023-02-03T00:55:57;7.10;;;6.40;;
2840;SDS011;53423;49.224;12.074;2023-02-03T00:58:25;7.63;;;6.93;;
2840;SDS011;53423;49.224;12.074;2023-02-03T01:00:53;7.07;;;6.03;;
2840;SDS011;53423;49.224;12.074;2023-02-03T01:03:22;7.20;;;6.60;;
2840;SDS011;53423;49.224;12.074;2023-02-03T01:05:50;6.63;;;5.93;;
2840;SDS011;53423;49.224;12.074;2023-02-03T01:08:18;6.70;;;6.00;;
2840;SDS011;53423;49.224;12.074;2023-02-03T01:10:46;5.90;;;5.37;;
2840;SDS011;53423;49.224;12.074;2023-02-03T01:13:15;5.30;;;4.90;;
2840;SDS011;53423;49.224;12.074;2023-02-03T01:15:46;5.77;;;4.40;;
2840;SDS011;53423;49.224;12.074;2023-02-03T01:18:14;3.90;;;3.60;;
2840;SDS011;53423;49.224;12.074;2023-02-03T01:20:42;3.60;;;3.30;;
2840;SDS011;53423;49.224;12.074;2023-02-03T01:23:10;3.47;;;3.07;;
2840;SDS011;53423;49.224;12.074;2023-02-03T01:25:38;3.43;;;3.13;;
2840;SDS011;53423;49.224;12.074;2023-02-03T01:28:06;3.30;;;3.00;;
2840;SDS011;53423;49.224;12.074;2023-02-03T01:30:35;2.50;;;2.30;;
2840;SDS011;53423;49.224;12.074;2023-02-03T01:33:03;4.17;;;2.60;;
2840;SDS011;53423;49.224;12.074;2023-02-03T01:35:32;2.40;;;2.20;;
2840;SDS011;53423;49.224;12.074;2023-02-03T01:38:01;2.47;;;2.10;;
2840;SDS011;53423;49.224;12.074;2023-02-03T01:40:29;2.10;;;1.90;;
2840;SDS011;53423;49.224;12.074;2023-02-03T01:42:57;2.97;;;2.13;;
2840;SDS011;53423;49.224;12.074;2023-02-03T01:45:25;2.40;;;1.70;;
2840;SDS011;53423;49.224;12.074;2023-02-03T01:47:54;1.83;;;1.50;;
2840;SDS011;53423;49.224;12.074;2023-02-03T01:50:26;3.07;;;1.80;;
2840;SDS011;53423;49.224;12.074;2023-02-03T01:52:59;2.37;;;1.80;;
2840;SDS011;53423;49.224;12.074;2023-02-03T01:55:30;1.87;;;1.47;;
2840;SDS011;53423;49.224;12.074;2023-02-03T01:58:03;2.43;;;2.00;;
2840;SDS011;53423;49.224;12.074;2023-02-03T02:00:33;1.60;;;1.50;;
2840;SDS011;53423;49.224;12.074;2023-02-03T02:03:03;1.60;;;1.33;;
2840;SDS011;53423;49.224;12.074;2023-02-03T02:05:34;1.40;;;1.30;;
2840;SDS011;53423;49.224;12.074;2023-02-03T02:08:06;1.37;;;1.20;;
2840;SDS011;53423;49.224;12.074;2023-02-03T02:10:36;1.53;;;1.43;;
2840;SDS011;53423;49.224;12.074;2023-02-03T02:13:03;1.53;;;1.43;;
2840;SDS011;53423;49.224;12.074;2023-02-03T02:15:35;1.27;;;1.17;;
2840;SDS011;53423;49.224;12.074;2023-02-03T02:21:11;1.47;;;1.23;;
2840;SDS011;53423;49.224;12.074;2023-02-03T02:24:07;1.33;;;1.10;;
2840;SDS011;53423;49.224;12.074;2023-02-03T02:26:50;1.10;;;1.00;;
2840;SDS011;53423;49.224;12.074;2023-02-03T02:29:27;1.30;;;1.20;;
2840;SDS011;53423;49.224;12.074;2023-02-03T02:32:18;1.27;;;1.27;;
2840;SDS011;53423;49.224;12.074;2023-02-03T02:34:57;1.47;;;1.20;;
2840;SDS011;53423;49.224;12.074;2023-02-03T02:37:35;1.17;;;1.10;;
2840;SDS011;53423;49.224;12.074;2023-02-03T02:40:13;1.60;;;1.40;;
2840;SDS011;53423;49.224;12.074;2023-02-03T02:42:51;1.60;;;1.50;;
2840;SDS011;53423;49.224;12.074;2023-02-03T02:45:27;1.57;;;1.47;;
2840;SDS011;53423;49.224;12.074;2023-02-03T02:48:00;2.30;;;1.43;;
2840;SDS011;53423;49.224;12.074;2023-02-03T02:50:36;2.83;;;2.63;;
2840;SDS011;53423;49.224;12.074;2023-02-03T02:53:07;1.70;;;1.60;;
2840;SDS011;53423;49.224;12.074;2023-02-03T02:55:38;1.67;;;1.57;;
2840;SDS011;53423;49.224;12.074;2023-02-03T02:58:08;1.60;;;1.50;;
2840;SDS011;53423;49.224;12.074;2023-02-03T03:00:40;1.87;;;1.77;;
2840;SDS011;53423;49.224;12.074;2023-02-03T03:03:15;2.33;;;2.13;;
2840;SDS011;53423;49.224;12.074;2023-02-03T03:05:47;2.33;;;2.13;;
2840;SDS011;53423;49.224;12.074;2023-02-03T03:08:17;2.30;;;2.10;;
2840;SDS011;53423;49.224;12.074;2023-02-03T03:10:50;2.13;;;1.93;;
2840;SDS011;53423;49.224;12.074;2023-02-03T03:13:21;2.27;;;2.13;;
2840;SDS011;53423;49.224;12.074;2023-02-03T03:15:52;2.70;;;2.50;;
2840;SDS011;53423;49.224;12.074;2023-02-03T03:18:26;3.13;;;2.40;;
2840;SDS011;53423;49.224;12.074;2023-02-03T03:20:58;3.03;;;2.80;;
2840;SDS011;53423;49.224;12.074;2023-02-03T03:23:32;4.50;;;3.20;;
2840;SDS011;53423;49.224;12.074;2023-02-03T03:26:07;4.00;;;3.57;;
2840;SDS011;53423;49.224;12.074;2023-02-03T03:28:41;3.93;;;3.63;;
2840;SDS011;53423;49.224;12.074;2023-02-03T03:31:14;7.20;;;4.30;;
2840;SDS011;53423;49.224;12.074;2023-02-03T03:33:45;5.07;;;4.30;;
2840;SDS011;53423;49.224;12.074;2023-02-03T03:36:19;7.17;;;4.73;;
2840;SDS011;53423;49.224;12.074;2023-02-03T03:38:53;7.57;;;4.97;;
2840;SDS011;53423;49.224;12.074;2023-02-03T03:41:26;7.40;;;4.53;;
2840;SDS011;53423;49.224;12.074;2023-02-03T03:44:02;5.37;;;4.87;;
2840;SDS011;53423;49.224;12.074;2023-02-03T03:46:33;6.87;;;5.20;;
2840;SDS011;53423;49.224;12.074;2023-02-03T03:49:09;7.53;;;5.57;;
2840;SDS011;53423;49.224;12.074;2023-02-03T03:51:39;8.40;;;5.77;;
2840;SDS011;53423;49.224;12.074;2023-02-03T03:54:11;7.17;;;5.17;;
2840;SDS011;53423;49.224;12.074;2023-02-03T03:56:45;6.30;;;5.53;;
2840;SDS011;53423;49.224;12.074;2023-02-03T03:59:18;6.17;;;5.57;;
2840;SDS011;53423;49.224;12.074;2023-02-03T04:01:48;5.80;;;5.30;;
2840;SDS011;53423;49.224;12.074;2023-02-03T04:04:19;9.37;;;5.70;;
2840;SDS011;53423;49.224;12.074;2023-02-03T04:06:51;7.37;;;5.77;;
2840;SDS011;53423;49.224;12.074;2023-02-03T04:09:19;6.50;;;5.80;;
2840;SDS011;53423;49.224;12.074;2023-02-03T04:11:47;6.53;;;5.33;;
2840;SDS011;53423;49.224;12.074;2023-02-03T04:14:32;6.47;;;4.97;;
2840;SDS011;53423;49.224;12.074;2023-02-03T04:17:01;6.03;;;5.30;;
2840;SDS011;53423;49.224;12.074;2023-02-03T04:19:30;7.23;;;5.07;;
2840;SDS011;53423;49.224;12.074;2023-02-03T04:21:58;5.40;;;4.90;;
2840;SDS011;53423;49.224;12.074;2023-02-03T04:24:26;5.80;;;5.30;;
2840;SDS011;53423;49.224;12.074;2023-02-03T04:26:54;5.03;;;4.53;;
2840;SDS011;53423;49.224;12.074;2023-02-03T04:29:22;4.93;;;4.43;;
2840;SDS011;53423;49.224;12.074;2023-02-03T04:31:50;5.07;;;4.57;;
2840;SDS011;53423;49.224;12.074;2023-02-03T04:34:18;5.90;;;4.30;;
2840;SDS011;53423;49.224;12.074;2023-02-03T04:36:47;4.73;;;3.47;;
2840;SDS011;53423;49.224;12.074;2023-02-03T04:39:15;4.00;;;3.70;;
2840;SDS011;53423;49.224;12.074;2023-02-03T04:41:43;4.27;;;3.60;;
2840;SDS011;53423;49.224;12.074;2023-02-03T04:44:11;3.87;;;3.50;;
2840;SDS011;53423;49.224;12.074;2023-02-03T04:46:39;3.90;;;3.40;;
2840;SDS011;53423;49.224;12.074;2023-02-03T04:49:07;3.23;;;2.60;;
2840;SDS011;53423;49.224;12.074;2023-02-03T04:51:37;2.80;;;2.60;;
2840;SDS011;53423;49.224;12.074;2023-02-03T04:54:06;3.20;;;2.87;;
2840;SDS011;53423;49.224;12.074;2023-02-03T04:56:34;4.00;;;3.00;;
2840;SDS011;53423;49.224;12.074;2023-02-03T04:59:02;2.60;;;2.27;;
2840;SDS011;53423;49.224;12.074;2023-02-03T05:01:30;3.23;;;2.53;;
2840;SDS011;53423;49.224;12.074;2023-02-03T05:03:58;2.43;;;2.17;;
2840;SDS011;53423;49.224;12.074;2023-02-03T05:06:27;4.20;;;2.70;;
2840;SDS011;53423;49.224;12.074;2023-02-03T05:08:57;2.70;;;2.50;;
2840;SDS011;53423;49.224;12.074;2023-02-03T05:11:27;2.70;;;2.50;;
2840;SDS011;53423;49.224;12.074;2023-02-03T05:13:55;3.10;;;2.90;;
2840;SDS011;53423;49.224;12.074;2023-02-03T05:16:23;3.27;;;2.97;;
2840;SDS011;53423;49.224;12.074;2023-02-03T05:18:51;3.70;;;3.30;;
2840;SDS011;53423;49.224;12.074;2023-02-03T05:21:19;4.17;;;3.50;;
2840;SDS011;53423;49.224;12.074;2023-02-03T05:23:47;3.67;;;3.23;;
2840;SDS011;53423;49.224;12.074;2023-02-03T05:26:15;2.93;;;2.63;;
2840;SDS011;53423;49.224;12.074;2023-02-03T05:28:45;3.87;;;2.90;;
2840;SDS011;53423;49.224;12.074;2023-02-03T05:31:12;3.80;;;2.87;;
2840;SDS011;53423;49.224;12.074;2023-02-03T05:33:41;2.67;;;2.47;;
2840;SDS011;53423;49.224;12.074;2023-02-03T05:36:09;3.27;;;3.00;;
2840;SDS011;53423;49.224;12.074;2023-02-03T05:38:36;2.80;;;2.60;;
2840;SDS011;53423;49.224;12.074;2023-02-03T05:41:04;3.63;;;3.07;;
2840;SDS011;53423;49.224;12.074;2023-02-03T05:43:51;3.43;;;2.67;;
2840;SDS011;53423;49.224;12.074;2023-02-03T05:46:19;6.03;;;3.00;;
2840;SDS011;53423;49.224;12.074;2023-02-03T05:48:47;3.20;;;2.97;;
2840;SDS011;53423;49.224;12.074;2023-02-03T05:51:15;3.63;;;3.33;;
2840;SDS011;53423;49.224;12.074;2023-02-03T05:53:43;3.50;;;3.17;;
2840;SDS011;53423;49.224;12.074;2023-02-03T05:56:10;3.57;;;3.27;;
2840;SDS011;53423;49.224;12.074;2023-02-03T05:58:38;3.70;;;3.40;;
2840;SDS011;53423;49.224;12.074;2023-02-03T06:01:08;3.87;;;3.27;;
2840;SDS011;53423;49.224;12.074;2023-02-03T06:03:37;3.60;;;3.40;;
2840;SDS011;53423;49.224;12.074;2023-02-03T06:06:05;3.87;;;3.33;;
2840;SDS011;53423;49.224;12.074;2023-02-03T06:08:33;3.67;;;3.37;;
2840;SDS011;53423;49.224;12.074;2023-02-03T06:11:01;4.80;;;4.03;;
2840;SDS011;53423;49.224;12.074;2023-02-03T06:13:29;4.93;;;3.60;;
2840;SDS011;53423;49.224;12.074;2023-02-03T06:15:57;3.73;;;3.43;;
2840;SDS011;53423;49.224;12.074;2023-02-03T06:18:26;3.47;;;3.17;;
2840;SDS011;53423;49.224;12.074;2023-02-03T06:20:54;4.13;;;3.73;;
2840;SDS011;53423;49.224;12.074;2023-02-03T06:23:22;3.97;;;3.20;;
2840;SDS011;53423;49.224;12.074;2023-02-03T06:25:50;3.77;;;3.00;;
2840;SDS011;53423;49.224;12.074;2023-02-03T06:28:18;3.93;;;3.20;;
2840;SDS011;53423;49.224;12.074;2023-02-03T06:30:48;3.10;;;2.80;;
2840;SDS011;53423;49.224;12.074;2023-02-03T06:33:17;2.80;;;2.60;;
2840;SDS011;53423;49.224;12.074;2023-02-03T06:35:47;2.63;;;2.43;;
2840;SDS011;53423;49.224;12.074;2023-02-03T06:38:15;2.93;;;2.73;;
2840;SDS011;53423;49.224;12.074;2023-02-03T06:40:45;3.20;;;2.90;;
2840;SDS011;53423;49.224;12.074;2023-02-03T06:43:13;2.87;;;2.67;;
2840;SDS011;53423;49.224;12.074;2023-02-03T06:45:41;2.80;;;2.60;;
2840;SDS011;53423;49.224;12.074;2023-02-03T06:48:12;3.70;;;2.70;;
2840;SDS011;53423;49.224;12.074;2023-02-03T06:50:40;2.90;;;2.70;;
2840;SDS011;53423;49.224;12.074;2023-02-03T06:53:10;2.70;;;2.50;;
2840;SDS011;53423;49.224;12.074;2023-02-03T06:55:38;2.70;;;2.50;;
2840;SDS011;53423;49.224;12.074;2023-02-03T06:58:06;3.07;;;2.53;;
2840;SDS011;53423;49.224;12.074;2023-02-03T07:00:34;2.87;;;2.67;;
2840;SDS011;53423;49.224;12.074;2023-02-03T07:03:02;3.53;;;2.77;;
2840;SDS011;53423;49.224;12.074;2023-02-03T07:05:30;2.50;;;2.40;;
2840;SDS011;53423;49.224;12.074;2023-02-03T07:07:58;2.77;;;2.57;;
2840;SDS011;53423;49.224;12.074;2023-02-03T07:10:27;2.90;;;2.70;;
2840;SDS011;53423;49.224;12.074;2023-02-03T07:13:00;3.43;;;3.00;;
2840;SDS011;53423;49.224;12.074;2023-02-03T07:15:28;3.10;;;2.90;;
2840;SDS011;53423;49.224;12.074;2023-02-03T07:17:56;4.20;;;3.90;;
2840;SDS011;53423;49.224;12.074;2023-02-03T07:20:25;2.90;;;2.70;;
2840;SDS011;53423;49.224;12.074;2023-02-03T07:22:55;2.70;;;2.50;;
2840;SDS011;53423;49.224;12.074;2023-02-03T07:25:24;2.70;;;2.50;;
2840;SDS011;53423;49.224;12.074;2023-02-03T07:27:54;2.77;;;2.57;;
2840;SDS011;53423;49.224;12.074;2023-02-03T07:30:22;3.70;;;2.43;;
2840;SDS011;53423;49.224;12.074;2023-02-03T07:32:50;2.73;;;2.33;;
2840;SDS011;53423;49.224;12.074;2023-02-03T07:35:19;2.77;;;2.57;;
2840;SDS011;53423;49.224;12.074;2023-02-03T07:37:47;2.70;;;2.50;;
2840;SDS011;53423;49.224;12.074;2023-02-03T07:40:15;3.57;;;2.47;;
2840;SDS011;53423;49.224;12.074;2023-02-03T07:42:44;2.60;;;2.40;;
2840;SDS011;53423;49.224;12.074;2023-02-03T07:45:15;2.73;;;2.53;;
2840;SDS011;53423;49.224;12.074;2023-02-03T07:47:44;5.27;;;2.57;;
2840;SDS011;53423;49.224;12.074;2023-02-03T07:50:12;2.80;;;2.60;;
2840;SDS011;53423;49.224;12.074;2023-02-03T07:52:40;2.70;;;2.50;;
2840;SDS011;53423;49.224;12.074;2023-02-03T07:55:08;2.70;;;2.50;;
2840;SDS011;53423;49.224;12.074;2023-02-03T07:57:36;3.10;;;2.80;;
2840;SDS011;53423;49.224;12.074;2023-02-03T08:00:09;3.67;;;2.57;;
2840;SDS011;53423;49.224;12.074;2023-02-03T08:02:40;2.10;;;2.00;;
2840;SDS011;53423;49.224;12.074;2023-02-03T08:05:09;2.83;;;2.57;;
2840;SDS011;53423;49.224;12.074;2023-02-03T08:07:38;2.97;;;2.70;;
2840;SDS011;53423;49.224;12.074;2023-02-03T08:10:06;3.03;;;2.40;;
2840;SDS011;53423;49.224;12.074;2023-02-03T08:12:35;2.13;;;2.03;;
2840;SDS011;53423;49.224;12.074;2023-02-03T08:15:04;2.47;;;2.37;;
2840;SDS011;53423;49.224;12.074;2023-02-03T08:17:33;2.23;;;2.13;;
2840;SDS011;53423;49.224;12.074;2023-02-03T08:20:03;2.90;;;2.60;;
2840;SDS011;53423;49.224;12.074;2023-02-03T08:22:32;2.63;;;2.43;;
2840;SDS011;53423;49.224;12.074;2023-02-03T08:25:00;2.50;;;2.30;;
2840;SDS011;53423;49.224;12.074;2023-02-03T08:27:30;2.40;;;2.20;;
2840;SDS011;53423;49.224;12.074;2023-02-03T08:29:58;2.20;;;2.00;;
2840;SDS011;53423;49.224;12.074;2023-02-03T08:32:26;2.77;;;2.57;;
2840;SDS011;53423;49.224;12.074;2023-02-03T08:34:54;2.93;;;2.73;;
2840;SDS011;53423;49.224;12.074;2023-02-03T08:37:24;2.83;;;2.50;;
2840;SDS011;53423;49.224;12.074;2023-02-03T08:39:53;2.63;;;2.30;;
2840;SDS011;53423;49.224;12.074;2023-02-03T08:42:21;2.50;;;2.30;;
2840;SDS011;53423;49.224;12.074;2023-02-03T08:44:49;2.23;;;2.03;;
2840;SDS011;53423;49.224;12.074;2023-02-03T08:47:17;2.30;;;1.90;;
2840;SDS011;53423;49.224;12.074;2023-02-03T08:49:45;2.37;;;2.17;;
2840;SDS011;53423;49.224;12.074;2023-02-03T08:52:14;2.00;;;1.90;;
2840;SDS011;53423;49.224;12.074;2023-02-03T08:54:45;1.93;;;1.83;;
2840;SDS011;53423;49.224;12.074;2023-02-03T08:57:14;2.40;;;2.20;;
2840;SDS011;53423;49.224;12.074;2023-02-03T08:59:42;2.00;;;1.90;;
2840;SDS011;53423;49.224;12.074;2023-02-03T09:02:12;2.53;;;2.30;;
2840;SDS011;53423;49.224;12.074;2023-02-03T09:04:44;2.20;;;2.00;;
2840;SDS011;53423;49.224;12.074;2023-02-03T09:07:14;1.97;;;1.87;;
2840;SDS011;53423;49.224;12.074;2023-02-03T09:09:43;1.83;;;1.73;;
2840;SDS011;53423;49.224;12.074;2023-02-03T09:12:12;1.80;;;1.70;;
2840;SDS011;53423;49.224;12.074;2023-02-03T09:14:40;2.60;;;1.90;;
2840;SDS011;53423;49.224;12.074;2023-02-03T09:17:08;1.80;;;1.60;;
2840;SDS011;53423;49.224;12.074;2023-02-03T09:19:36;1.80;;;1.70;;
2840;SDS011;53423;49.224;12.074;2023-02-03T09:22:04;2.07;;;1.87;;
2840;SDS011;53423;49.224;12.074;2023-02-03T09:24:33;2.40;;;2.30;;
2840;SDS011;53423;49.224;12.074;2023-02-03T09:27:00;1.40;;;1.30;;
2840;SDS011;53423;49.224;12.074;2023-02-03T09:29:30;1.30;;;1.20;;
2840;SDS011;53423;49.224;12.074;2023-02-03T09:31:58;1.87;;;1.53;;
2840;SDS011;53423;49.224;12.074;2023-02-03T09:34:32;2.00;;;1.40;;
2840;SDS011;53423;49.224;12.074;2023-02-03T09:37:00;1.87;;;1.50;;
2840;SDS011;53423;49.224;12.074;2023-02-03T09:39:29;2.60;;;2.03;;
2840;SDS011;53423;49.224;12.074;2023-02-03T09:42:08;3.00;;;2.80;;
2840;SDS011;53423;49.224;12.074;2023-02-03T09:45:03;3.57;;;2.67;;
2840;SDS011;53423;49.224;12.074;2023-02-03T09:47:37;2.87;;;2.50;;
2840;SDS011;53423;49.224;12.074;2023-02-03T09:50:10;2.10;;;2.00;;
2840;SDS011;53423;49.224;12.074;2023-02-03T09:52:42;2.20;;;2.00;;
2840;SDS011;53423;49.224;12.074;2023-02-03T09:55:14;2.13;;;1.90;;
2840;SDS011;53423;49.224;12.074;2023-02-03T09:57:50;2.10;;;2.00;;
2840;SDS011;53423;49.224;12.074;2023-02-03T10:00:25;4.63;;;2.17;;
2840;SDS011;53423;49.224;12.074;2023-02-03T10:02:55;3.33;;;2.10;;
2840;SDS011;53423;49.224;12.074;2023-02-03T10:05:32;2.30;;;2.10;;
2840;SDS011;53423;49.224;12.074;2023-02-03T10:08:14;2.03;;;1.70;;
2840;SDS011;53423;49.224;12.074;2023-02-03T10:10:52;2.20;;;2.00;;
2840;SDS011;53423;49.224;12.074;2023-02-03T10:13:39;2.10;;;2.00;;
2840;SDS011;53423;49.224;12.074;2023-02-03T10:16:20;1.77;;;1.67;;
2840;SDS011;53423;49.224;12.074;2023-02-03T10:19:00;2.97;;;2.10;;
2840;SDS011;53423;49.224;12.074;2023-02-03T10:21:34;1.87;;;1.77;;
2840;SDS011;53423;49.224;12.074;2023-02-03T10:24:06;3.00;;;2.00;;
2840;SDS011;53423;49.224;12.074;2023-02-03T10:26:39;1.97;;;1.40;;
2840;SDS011;53423;49.224;12.074;2023-02-03T10:29:14;3.23;;;1.60;;
2840;SDS011;53423;49.224;12.074;2023-02-03T10:31:47;2.17;;;1.83;;
2840;SDS011;53423;49.224;12.074;2023-02-03T10:34:16;2.10;;;2.00;;
2840;SDS011;53423;49.224;12.074;2023-02-03T10:36:52;1.93;;;1.70;;
2840;SDS011;53423;49.224;12.074;2023-02-03T10:39:26;2.37;;;1.50;;
2840;SDS011;53423;49.224;12.074;2023-02-03T10:45:12;2.97;;;2.07;;
2840;SDS011;53423;49.224;12.074;2023-02-03T10:47:42;2.90;;;2.10;;
2840;SDS011;53423;49.224;12.074;2023-02-03T10:50:15;1.73;;;1.63;;
2840;SDS011;53423;49.224;12.074;2023-02-03T10:52:44;1.53;;;1.40;;
2840;SDS011;53423;49.224;12.074;2023-02-03T10:55:28;1.97;;;1.80;;
2840;SDS011;53423;49.224;12.074;2023-02-03T10:57:57;1.70;;;1.60;;
2840;SDS011;53423;49.224;12.074;2023-02-03T11:00:38;2.17;;;1.97;;
2840;SDS011;53423;49.224;12.074;2023-02-03T11:03:15;1.90;;;1.63;;
2840;SDS011;53423;49.224;12.074;2023-02-03T11:05:53;1.70;;;1.60;;
2840;SDS011;53423;49.224;12.074;2023-02-03T11:08:32;1.80;;;1.70;;
2840;SDS011;53423;49.224;12.074;2023-02-03T11:11:01;1.63;;;1.53;;
2840;SDS011;53423;49.224;12.074;2023-02-03T11:13:30;2.40;;;1.60;;
2840;SDS011;53423;49.224;12.074;2023-02-03T11:15:58;3.60;;;3.13;;
2840;SDS011;53423;49.224;12.074;2023-02-03T11:21:20;3.43;;;2.87;;
2840;SDS011;53423;49.224;12.074;2023-02-03T11:23:52;2.27;;;2.07;;
2840;SDS011;53423;49.224;12.074;2023-02-03T11:26:24;2.50;;;2.30;;
2840;SDS011;53423;49.224;12.074;2023-02-03T11:28:55;1.50;;;1.40;;
2840;SDS011;53423;49.224;12.074;2023-02-03T11:31:25;2.50;;;2.30;;
2840;SDS011;53423;49.224;12.074;2023-02-03T11:33:57;2.80;;;2.00;;
2840;SDS011;53423;49.224;12.074;2023-02-03T11:36:28;2.20;;;1.90;;
2840;SDS011;53423;49.224;12.074;2023-02-03T11:39:09;2.10;;;1.60;;
2840;SDS011;53423;49.224;12.074;2023-02-03T11:41:43;2.33;;;1.77;;
2840;SDS011;53423;49.224;12.074;2023-02-03T11:44:14;1.70;;;1.53;;
2840;SDS011;53423;49.224;12.074;2023-02-03T11:46:44;1.70;;;1.60;;
2840;SDS011;53423;49.224;12.074;2023-02-03T11:49:22;1.40;;;1.33;;
2840;SDS011;53423;49.224;12.074;2023-02-03T11:52:25;1.60;;;1.50;;
2840;SDS011;53423;49.224;12.074;2023-02-03T11:55:15;1.43;;;1.33;;
2840;SDS011;53423;49.224;12.074;2023-02-03T11:57:54;1.40;;;1.30;;
2840;SDS011;53423;49.224;12.074;2023-02-03T12:00:34;2.17;;;1.60;;
2840;SDS011;53423;49.224;12.074;2023-02-03T12:06:17;1.53;;;1.20;;
2840;SDS011;53423;49.224;12.074;2023-02-03T12:08:58;2.20;;;1.53;;
2840;SDS011;53423;49.224;12.074;2023-02-03T12:11:39;1.53;;;1.43;;
2840;SDS011;53423;49.224;12.074;2023-02-03T12:14:26;1.73;;;1.63;;
2840;SDS011;53423;49.224;12.074;2023-02-03T12:17:12;1.30;;;1.20;;
2840;SDS011;53423;49.224;12.074;2023-02-03T12:19:57;1.43;;;1.33;;
2840;SDS011;53423;49.224;12.074;2023-02-03T12:22:35;1.67;;;1.37;;
2840;SDS011;53423;49.224;12.074;2023-02-03T12:25:21;1.83;;;1.53;;
2840;SDS011;53423;49.224;12.074;2023-02-03T12:28:00;1.77;;;1.33;;
2840;SDS011;53423;49.224;12.074;2023-02-03T12:30:59;1.70;;;1.60;;
2840;SDS011;53423;49.224;12.074;2023-02-03T12:33:32;2.27;;;1.70;;
2840;SDS011;53423;49.224;12.074;2023-02-03T12:36:07;2.20;;;1.97;;
2840;SDS011;53423;49.224;12.074;2023-02-03T12:38:43;1.80;;;1.50;;
2840;SDS011;53423;49.224;12.074;2023-02-03T12:41:13;2.07;;;1.83;;
2840;SDS011;53423;49.224;12.074;2023-02-03T12:43:45;2.20;;;2.00;;
2840;SDS011;53423;49.224;12.074;2023-02-03T12:46:16;2.60;;;2.40;;
2840;SDS011;53423;49.224;12.074;2023-02-03T12:48:49;1.97;;;1.87;;
2840;SDS011;53423;49.224;12.074;2023-02-03T12:51:24;2.17;;;1.77;;
2840;SDS011;53423;49.224;12.074;2023-02-03T12:54:00;2.97;;;2.67;;
2840;SDS011;53423;49.224;12.074;2023-02-03T12:56:33;1.57;;;1.30;;
2840;SDS011;53423;49.224;12.074;2023-02-03T12:59:08;1.57;;;1.47;;
2840;SDS011;53423;49.224;12.074;2023-02-03T13:01:43;1.90;;;1.80;;
2840;SDS011;53423;49.224;12.074;2023-02-03T13:04:17;1.83;;;1.63;;
2840;SDS011;53423;49.224;12.074;2023-02-03T13:06:53;3.27;;;1.90;;
2840;SDS011;53423;49.224;12.074;2023-02-03T13:09:30;1.90;;;1.80;;
2840;SDS011;53423;49.224;12.074;2023-02-03T13:12:05;1.77;;;1.60;;
2840;SDS011;53423;49.224;12.074;2023-02-03T13:14:38;2.47;;;1.57;;
2840;SDS011;53423;49.224;12.074;2023-02-03T13:17:12;2.80;;;1.70;;
2840;SDS011;53423;49.224;12.074;2023-02-03T13:19:45;2.50;;;1.53;;
2840;SDS011;53423;49.224;12.074;2023-02-03T13:22:16;1.87;;;1.67;;
2840;SDS011;53423;49.224;12.074;2023-02-03T13:24:51;1.80;;;1.53;;
2840;SDS011;53423;49.224;12.074;2023-02-03T13:27:29;1.33;;;1.30;;
2840;SDS011;53423;49.224;12.074;2023-02-03T13:42:17;2.00;;;1.50;;
2840;SDS011;53423;49.224;12.074;2023-02-03T13:44:49;1.30;;;1.20;;
2840;SDS011;53423;49.224;12.074;2023-02-03T13:47:21;1.30;;;1.20;;
2840;SDS011;53423;49.224;12.074;2023-02-03T13:49:54;1.27;;;1.23;;
2840;SDS011;53423;49.224;12.074;2023-02-03T13:52:28;2.50;;;1.77;;
2840;SDS011;53423;49.224;12.074;2023-02-03T13:55:00;1.27;;;1.17;;
2840;SDS011;53423;49.224;12.074;2023-02-03T13:57:32;1.83;;;1.60;;
2840;SDS011;53423;49.224;12.074;2023-02-03T14:00:03;0.93;;;0.93;;
2840;SDS011;53423;49.224;12.074;2023-02-03T14:02:42;1.23;;;0.83;;
2840;SDS011;53423;49.224;12.074;2023-02-03T14:23:43;0.87;;;0.80;;
2840;SDS011;53423;49.224;12.074;2023-02-03T14:26:16;0.93;;;0.93;;
2840;SDS011;53423;49.224;12.074;2023-02-03T14:28:49;1.37;;;1.20;;
2840;SDS011;53423;49.224;12.074;2023-02-03T14:31:20;0.90;;;0.90;;
2840;SDS011;53423;49.224;12.074;2023-02-03T14:36:39;0.80;;;0.80;;
2840;SDS011;53423;49.224;12.074;2023-02-03T14:39:35;1.00;;;1.00;;
2840;SDS011;53423;49.224;12.074;2023-02-03T14:42:28;0.70;;;0.70;;
2840;SDS011;53423;49.224;12.074;2023-02-03T14:45:14;0.80;;;0.80;;
2840;SDS011;53423;49.224;12.074;2023-02-03T14:47:57;1.17;;;0.83;;
2840;SDS011;53423;49.224;12.074;2023-02-03T14:50:36;0.70;;;0.70;;
2840;SDS011;53423;49.224;12.074;2023-02-03T14:53:21;0.80;;;0.80;;
2840;SDS011;53423;49.224;12.074;2023-02-03T14:56:03;1.13;;;0.90;;
2840;SDS011;53423;49.224;12.074;2023-02-03T14:58:41;0.83;;;0.83;;
2840;SDS011;53423;49.224;12.074;2023-02-03T15:01:22;0.77;;;0.77;;
2840;SDS011;53423;49.224;12.074;2023-02-03T15:06:51;0.70;;;0.70;;
2840;SDS011;53423;49.224;12.074;2023-02-03T15:09:22;0.90;;;0.90;;
2840;SDS011;53423;49.224;12.074;2023-02-03T15:11:56;1.30;;;0.80;;
2840;SDS011;53423;49.224;12.074;2023-02-03T15:14:24;0.60;;;0.60;;
2840;SDS011;53423;49.224;12.074;2023-02-03T15:16:57;1.20;;;1.10;;
2840;SDS011;53423;49.224;12.074;2023-02-03T15:19:32;1.00;;;1.00;;
2840;SDS011;53423;49.224;12.074;2023-02-03T15:22:01;1.10;;;0.90;;
2840;SDS011;53423;49.224;12.074;2023-02-03T15:24:33;1.00;;;1.00;;
2840;SDS011;53423;49.224;12.074;2023-02-03T15:27:03;0.80;;;0.80;;
2840;SDS011;53423;49.224;12.074;2023-02-03T15:29:32;1.13;;;1.03;;
2840;SDS011;53423;49.224;12.074;2023-02-03T15:32:03;1.70;;;1.60;;
2840;SDS011;53423;49.224;12.074;2023-02-03T15:34:40;0.83;;;0.83;;
2840;SDS011;53423;49.224;12.074;2023-02-03T15:37:12;1.20;;;1.10;;
2840;SDS011;53423;49.224;12.074;2023-02-03T15:39:46;0.50;;;0.50;;
2840;SDS011;53423;49.224;12.074;2023-02-03T15:42:21;0.70;;;0.70;;
2840;SDS011;53423;49.224;12.074;2023-02-03T15:44:55;0.70;;;0.70;;
2840;SDS011;53423;49.224;12.074;2023-02-03T15:47:29;0.73;;;0.73;;
2840;SDS011;53423;49.224;12.074;2023-02-03T15:50:05;0.77;;;0.77;;
2840;SDS011;53423;49.224;12.074;2023-02-03T15:52:42;0.80;;;0.80;;
2840;SDS011;53423;49.224;12.074;2023-02-03T15:55:14;0.50;;;0.50;;
2840;SDS011;53423;49.224;12.074;2023-02-03T15:57:47;0.80;;;0.80;;
2840;SDS011;53423;49.224;12.074;2023-02-03T16:00:27;0.70;;;0.70;;
2840;SDS011;53423;49.224;12.074;2023-02-03T16:02:58;1.47;;;1.37;;
2840;SDS011;53423;49.224;12.074;2023-02-03T16:05:29;0.83;;;0.83;;